sensor_id;sensor_type;location;lat;lon;timestamp;P1;durP1;ratioP1;P2;durP2;ratioP2
40154;SDS011;25875;48.202;16.334;2024-02-23T00:01:50;9.57;;;6.97;;
40154;SDS011;25875;48.202;16.334;2024-02-23T00:04:17;10.27;;;6.72;;
40154;SDS011;25875;48.202;16.334;2024-02-23T00:06:46;8.90;;;6.90;;
40154;SDS011;25875;48.202;16.334;2024-02-23T00:09:12;9.98;;;7.68;;
40154;SDS011;25875;48.202;16.334;2024-02-23T00:11:39;10.32;;;8.23;;
40154;SDS011;25875;48.202;16.334;2024-02-23T00:14:09;10.45;;;8.05;;
40154;SDS011;25875;48.202;16.334;2024-02-23T00:16:37;8.80;;;7.68;;
40154;SDS011;25875;48.202;16.334;2024-02-23T00:19:04;9.80;;;6.43;;
40154;SDS011;25875;48.202;16.334;2024-02-23T00:21:31;9.20;;;7.15;;
40154;SDS011;25875;48.202;16.334;2024-02-23T00:23:59;8.05;;;6.80;;
40154;SDS011;25875;48.202;16.334;2024-02-23T00:26:26;8.43;;;6.85;;
40154;SDS011;25875;48.202;16.334;2024-02-23T00:28:53;9.80;;;6.90;;
40154;SDS011;25875;48.202;16.334;2024-02-23T00:31:19;8.38;;;7.28;;
40154;SDS011;25875;48.202;16.334;2024-02-23T00:33:46;7.43;;;6.00;;
40154;SDS011;25875;48.202;16.334;2024-02-23T00:36:13;7.88;;;6.45;;
40154;SDS011;25875;48.202;16.334;2024-02-23T00:38:39;7.45;;;6.05;;
40154;SDS011;25875;48.202;16.334;2024-02-23T00:41:07;7.50;;;6.43;;
40154;SDS011;25875;48.202;16.334;2024-02-23T00:43:37;7.72;;;6.18;;
40154;SDS011;25875;48.202;16.334;2024-02-23T00:46:04;7.75;;;6.95;;
40154;SDS011;25875;48.202;16.334;2024-02-23T00:48:30;8.63;;;6.97;;
40154;SDS011;25875;48.202;16.334;2024-02-23T00:50:57;7.70;;;6.38;;
40154;SDS011;25875;48.202;16.334;2024-02-23T00:53:24;7.75;;;6.68;;
40154;SDS011;25875;48.202;16.334;2024-02-23T00:55:50;7.68;;;6.75;;
40154;SDS011;25875;48.202;16.334;2024-02-23T00:58:18;9.93;;;7.07;;
40154;SDS011;25875;48.202;16.334;2024-02-23T01:00:45;8.50;;;6.75;;
40154;SDS011;25875;48.202;16.334;2024-02-23T01:03:12;8.40;;;6.90;;
40154;SDS011;25875;48.202;16.334;2024-02-23T01:05:38;8.20;;;6.55;;
40154;SDS011;25875;48.202;16.334;2024-02-23T01:08:07;8.75;;;6.97;;
40154;SDS011;25875;48.202;16.334;2024-02-23T01:10:34;7.20;;;6.47;;
40154;SDS011;25875;48.202;16.334;2024-02-23T01:13:01;7.13;;;6.43;;
40154;SDS011;25875;48.202;16.334;2024-02-23T01:15:29;6.25;;;5.57;;
40154;SDS011;25875;48.202;16.334;2024-02-23T01:17:55;7.57;;;5.90;;
40154;SDS011;25875;48.202;16.334;2024-02-23T01:20:22;8.60;;;6.65;;
40154;SDS011;25875;48.202;16.334;2024-02-23T01:22:49;7.30;;;6.05;;
40154;SDS011;25875;48.202;16.334;2024-02-23T01:25:15;7.50;;;5.65;;
40154;SDS011;25875;48.202;16.334;2024-02-23T01:27:42;7.60;;;5.95;;
40154;SDS011;25875;48.202;16.334;2024-02-23T01:30:10;6.55;;;5.78;;
40154;SDS011;25875;48.202;16.334;2024-02-23T01:32:39;9.52;;;5.90;;
40154;SDS011;25875;48.202;16.334;2024-02-23T01:35:06;9.73;;;6.43;;
40154;SDS011;25875;48.202;16.334;2024-02-23T01:37:33;7.47;;;6.35;;
40154;SDS011;25875;48.202;16.334;2024-02-23T01:40:00;7.22;;;5.80;;
40154;SDS011;25875;48.202;16.334;2024-02-23T01:42:27;6.70;;;5.80;;
40154;SDS011;25875;48.202;16.334;2024-02-23T01:44:53;7.45;;;5.70;;
40154;SDS011;25875;48.202;16.334;2024-02-23T01:47:21;6.25;;;5.45;;
40154;SDS011;25875;48.202;16.334;2024-02-23T01:49:50;7.47;;;6.07;;
40154;SDS011;25875;48.202;16.334;2024-02-23T01:52:17;6.25;;;5.32;;
40154;SDS011;25875;48.202;16.334;2024-02-23T01:54:44;7.80;;;5.45;;
40154;SDS011;25875;48.202;16.334;2024-02-23T01:57:11;6.28;;;5.40;;
40154;SDS011;25875;48.202;16.334;2024-02-23T01:59:38;6.53;;;5.55;;
40154;SDS011;25875;48.202;16.334;2024-02-23T02:02:06;8.55;;;5.80;;
40154;SDS011;25875;48.202;16.334;2024-02-23T02:04:32;6.25;;;5.38;;
40154;SDS011;25875;48.202;16.334;2024-02-23T02:07:00;5.70;;;4.63;;
40154;SDS011;25875;48.202;16.334;2024-02-23T02:09:27;7.25;;;5.38;;
40154;SDS011;25875;48.202;16.334;2024-02-23T02:11:54;11.75;;;5.47;;
40154;SDS011;25875;48.202;16.334;2024-02-23T02:14:21;7.18;;;5.30;;
40154;SDS011;25875;48.202;16.334;2024-02-23T02:16:47;6.45;;;5.68;;
40154;SDS011;25875;48.202;16.334;2024-02-23T02:19:14;6.07;;;5.28;;
40154;SDS011;25875;48.202;16.334;2024-02-23T02:21:41;6.63;;;5.22;;
40154;SDS011;25875;48.202;16.334;2024-02-23T02:24:09;6.70;;;5.30;;
40154;SDS011;25875;48.202;16.334;2024-02-23T02:26:35;8.23;;;6.38;;
40154;SDS011;25875;48.202;16.334;2024-02-23T02:29:03;6.45;;;5.10;;
40154;SDS011;25875;48.202;16.334;2024-02-23T02:31:30;7.78;;;5.60;;
40154;SDS011;25875;48.202;16.334;2024-02-23T02:34:02;7.43;;;5.13;;
40154;SDS011;25875;48.202;16.334;2024-02-23T02:36:29;7.38;;;5.43;;
40154;SDS011;25875;48.202;16.334;2024-02-23T02:38:54;6.72;;;5.60;;
40154;SDS011;25875;48.202;16.334;2024-02-23T02:41:23;5.38;;;4.53;;
40154;SDS011;25875;48.202;16.334;2024-02-23T02:43:54;7.03;;;5.00;;
40154;SDS011;25875;48.202;16.334;2024-02-23T02:46:21;6.38;;;4.97;;
40154;SDS011;25875;48.202;16.334;2024-02-23T02:48:47;6.35;;;5.13;;
40154;SDS011;25875;48.202;16.334;2024-02-23T02:51:14;5.88;;;5.00;;
40154;SDS011;25875;48.202;16.334;2024-02-23T02:53:41;5.68;;;4.93;;
40154;SDS011;25875;48.202;16.334;2024-02-23T02:56:07;7.55;;;6.25;;
40154;SDS011;25875;48.202;16.334;2024-02-23T02:58:35;7.35;;;5.50;;
40154;SDS011;25875;48.202;16.334;2024-02-23T03:01:02;6.32;;;5.07;;
40154;SDS011;25875;48.202;16.334;2024-02-23T03:03:29;6.40;;;4.72;;
40154;SDS011;25875;48.202;16.334;2024-02-23T03:05:55;6.28;;;5.00;;
40154;SDS011;25875;48.202;16.334;2024-02-23T03:08:22;5.75;;;4.57;;
40154;SDS011;25875;48.202;16.334;2024-02-23T03:10:49;6.03;;;5.13;;
40154;SDS011;25875;48.202;16.334;2024-02-23T03:13:15;5.55;;;4.30;;
40154;SDS011;25875;48.202;16.334;2024-02-23T03:15:43;5.97;;;4.95;;
40154;SDS011;25875;48.202;16.334;2024-02-23T03:18:10;7.38;;;4.53;;
40154;SDS011;25875;48.202;16.334;2024-02-23T03:20:37;5.72;;;4.90;;
40154;SDS011;25875;48.202;16.334;2024-02-23T03:23:04;6.07;;;4.60;;
40154;SDS011;25875;48.202;16.334;2024-02-23T03:25:31;5.55;;;4.70;;
40154;SDS011;25875;48.202;16.334;2024-02-23T03:27:57;6.03;;;4.82;;
40154;SDS011;25875;48.202;16.334;2024-02-23T03:30:24;7.30;;;5.00;;
40154;SDS011;25875;48.202;16.334;2024-02-23T03:32:52;5.85;;;4.60;;
40154;SDS011;25875;48.202;16.334;2024-02-23T03:35:18;6.75;;;5.63;;
40154;SDS011;25875;48.202;16.334;2024-02-23T03:37:45;5.97;;;4.60;;
40154;SDS011;25875;48.202;16.334;2024-02-23T03:40:12;5.88;;;5.10;;
40154;SDS011;25875;48.202;16.334;2024-02-23T03:42:39;7.40;;;5.22;;
40154;SDS011;25875;48.202;16.334;2024-02-23T03:45:05;6.00;;;4.88;;
40154;SDS011;25875;48.202;16.334;2024-02-23T03:47:32;6.03;;;4.25;;
40154;SDS011;25875;48.202;16.334;2024-02-23T03:50:00;6.20;;;4.85;;
40154;SDS011;25875;48.202;16.334;2024-02-23T03:52:27;6.50;;;5.28;;
40154;SDS011;25875;48.202;16.334;2024-02-23T03:54:53;8.40;;;4.38;;
40154;SDS011;25875;48.202;16.334;2024-02-23T03:57:20;44.22;;;28.17;;
40154;SDS011;25875;48.202;16.334;2024-02-23T03:59:53;48.03;;;29.75;;
40154;SDS011;25875;48.202;16.334;2024-02-23T04:02:19;35.85;;;22.15;;
40154;SDS011;25875;48.202;16.334;2024-02-23T04:04:47;20.48;;;13.25;;
40154;SDS011;25875;48.202;16.334;2024-02-23T04:07:15;10.07;;;7.57;;
40154;SDS011;25875;48.202;16.334;2024-02-23T04:09:41;10.25;;;7.22;;
40154;SDS011;25875;48.202;16.334;2024-02-23T04:12:08;9.48;;;7.78;;
40154;SDS011;25875;48.202;16.334;2024-02-23T04:14:35;9.65;;;8.65;;
40154;SDS011;25875;48.202;16.334;2024-02-23T04:17:01;9.70;;;8.70;;
40154;SDS011;25875;48.202;16.334;2024-02-23T04:19:28;9.40;;;8.43;;
40154;SDS011;25875;48.202;16.334;2024-02-23T04:21:55;10.23;;;8.50;;
40154;SDS011;25875;48.202;16.334;2024-02-23T04:24:23;9.55;;;7.88;;
40154;SDS011;25875;48.202;16.334;2024-02-23T04:26:49;8.52;;;7.70;;
40154;SDS011;25875;48.202;16.334;2024-02-23T04:29:16;8.70;;;7.80;;
40154;SDS011;25875;48.202;16.334;2024-02-23T04:31:43;11.15;;;8.02;;
40154;SDS011;25875;48.202;16.334;2024-02-23T04:34:09;9.07;;;7.28;;
40154;SDS011;25875;48.202;16.334;2024-02-23T04:36:36;8.40;;;7.50;;
40154;SDS011;25875;48.202;16.334;2024-02-23T04:39:02;7.45;;;6.68;;
40154;SDS011;25875;48.202;16.334;2024-02-23T04:41:30;6.18;;;5.57;;
40154;SDS011;25875;48.202;16.334;2024-02-23T04:43:57;7.00;;;5.13;;
40154;SDS011;25875;48.202;16.334;2024-02-23T04:46:25;6.45;;;4.50;;
40154;SDS011;25875;48.202;16.334;2024-02-23T04:48:52;4.63;;;3.47;;
40154;SDS011;25875;48.202;16.334;2024-02-23T04:51:19;4.63;;;3.70;;
40154;SDS011;25875;48.202;16.334;2024-02-23T04:53:47;4.93;;;3.35;;
40154;SDS011;25875;48.202;16.334;2024-02-23T04:56:14;4.47;;;3.60;;
40154;SDS011;25875;48.202;16.334;2024-02-23T04:58:42;3.83;;;3.28;;
40154;SDS011;25875;48.202;16.334;2024-02-23T05:01:09;3.92;;;2.70;;
40154;SDS011;25875;48.202;16.334;2024-02-23T05:03:36;3.63;;;2.63;;
40154;SDS011;25875;48.202;16.334;2024-02-23T05:06:02;3.53;;;2.55;;
40154;SDS011;25875;48.202;16.334;2024-02-23T05:08:29;3.72;;;2.20;;
40154;SDS011;25875;48.202;16.334;2024-02-23T05:10:56;2.70;;;2.10;;
40154;SDS011;25875;48.202;16.334;2024-02-23T05:13:23;3.67;;;2.00;;
40154;SDS011;25875;48.202;16.334;2024-02-23T05:15:51;7.95;;;2.13;;
40154;SDS011;25875;48.202;16.334;2024-02-23T05:18:17;2.80;;;2.10;;
40154;SDS011;25875;48.202;16.334;2024-02-23T05:20:44;2.92;;;2.00;;
40154;SDS011;25875;48.202;16.334;2024-02-23T05:23:11;4.05;;;3.00;;
40154;SDS011;25875;48.202;16.334;2024-02-23T05:25:37;4.47;;;3.00;;
40154;SDS011;25875;48.202;16.334;2024-02-23T05:28:04;2.72;;;1.95;;
40154;SDS011;25875;48.202;16.334;2024-02-23T05:30:31;2.78;;;1.95;;
40154;SDS011;25875;48.202;16.334;2024-02-23T05:32:59;2.60;;;1.90;;
40154;SDS011;25875;48.202;16.334;2024-02-23T05:35:28;3.17;;;2.00;;
40154;SDS011;25875;48.202;16.334;2024-02-23T05:37:54;2.65;;;1.80;;
40154;SDS011;25875;48.202;16.334;2024-02-23T05:40:21;2.70;;;1.92;;
40154;SDS011;25875;48.202;16.334;2024-02-23T05:42:48;2.90;;;1.80;;
40154;SDS011;25875;48.202;16.334;2024-02-23T05:45:14;2.88;;;1.60;;
40154;SDS011;25875;48.202;16.334;2024-02-23T05:47:41;2.90;;;1.90;;
40154;SDS011;25875;48.202;16.334;2024-02-23T05:50:09;2.80;;;2.03;;
40154;SDS011;25875;48.202;16.334;2024-02-23T05:52:36;3.28;;;2.10;;
40154;SDS011;25875;48.202;16.334;2024-02-23T05:55:03;3.03;;;2.00;;
40154;SDS011;25875;48.202;16.334;2024-02-23T05:57:30;2.47;;;1.83;;
40154;SDS011;25875;48.202;16.334;2024-02-23T05:59:57;2.92;;;1.90;;
40154;SDS011;25875;48.202;16.334;2024-02-23T06:02:23;2.60;;;1.70;;
40154;SDS011;25875;48.202;16.334;2024-02-23T06:04:50;2.47;;;1.80;;
40154;SDS011;25875;48.202;16.334;2024-02-23T06:07:18;2.70;;;1.80;;
40154;SDS011;25875;48.202;16.334;2024-02-23T06:09:46;2.40;;;1.70;;
40154;SDS011;25875;48.202;16.334;2024-02-23T06:12:13;2.60;;;1.58;;
40154;SDS011;25875;48.202;16.334;2024-02-23T06:14:40;2.40;;;1.70;;
40154;SDS011;25875;48.202;16.334;2024-02-23T06:17:06;3.97;;;1.60;;
40154;SDS011;25875;48.202;16.334;2024-02-23T06:19:33;2.67;;;1.70;;
40154;SDS011;25875;48.202;16.334;2024-02-23T06:22:00;2.67;;;1.70;;
40154;SDS011;25875;48.202;16.334;2024-02-23T06:24:28;2.50;;;1.73;;
40154;SDS011;25875;48.202;16.334;2024-02-23T06:26:54;2.40;;;1.67;;
40154;SDS011;25875;48.202;16.334;2024-02-23T06:29:23;2.45;;;1.60;;
40154;SDS011;25875;48.202;16.334;2024-02-23T06:31:49;2.30;;;1.65;;
40154;SDS011;25875;48.202;16.334;2024-02-23T06:34:16;2.33;;;1.58;;
40154;SDS011;25875;48.202;16.334;2024-02-23T06:36:42;2.30;;;1.65;;
40154;SDS011;25875;48.202;16.334;2024-02-23T06:39:09;2.30;;;1.50;;
40154;SDS011;25875;48.202;16.334;2024-02-23T06:41:37;2.92;;;1.50;;
40154;SDS011;25875;48.202;16.334;2024-02-23T06:44:05;2.65;;;1.60;;
40154;SDS011;25875;48.202;16.334;2024-02-23T06:46:31;2.53;;;1.40;;
40154;SDS011;25875;48.202;16.334;2024-02-23T06:48:58;2.28;;;1.50;;
40154;SDS011;25875;48.202;16.334;2024-02-23T06:51:25;2.42;;;1.70;;
40154;SDS011;25875;48.202;16.334;2024-02-23T06:53:51;2.72;;;1.60;;
40154;SDS011;25875;48.202;16.334;2024-02-23T06:56:18;2.78;;;1.77;;
40154;SDS011;25875;48.202;16.334;2024-02-23T06:58:46;3.30;;;1.60;;
40154;SDS011;25875;48.202;16.334;2024-02-23T07:01:13;3.17;;;1.70;;
40154;SDS011;25875;48.202;16.334;2024-02-23T07:03:39;2.63;;;1.77;;
40154;SDS011;25875;48.202;16.334;2024-02-23T07:06:08;2.75;;;1.60;;
40154;SDS011;25875;48.202;16.334;2024-02-23T07:08:35;2.53;;;1.70;;
40154;SDS011;25875;48.202;16.334;2024-02-23T07:11:02;2.40;;;1.50;;
40154;SDS011;25875;48.202;16.334;2024-02-23T07:13:29;3.70;;;1.80;;
40154;SDS011;25875;48.202;16.334;2024-02-23T07:15:57;2.35;;;1.60;;
40154;SDS011;25875;48.202;16.334;2024-02-23T07:18:26;2.55;;;1.50;;
40154;SDS011;25875;48.202;16.334;2024-02-23T07:20:53;3.67;;;1.70;;
40154;SDS011;25875;48.202;16.334;2024-02-23T07:23:20;2.50;;;1.70;;
40154;SDS011;25875;48.202;16.334;2024-02-23T07:25:48;2.78;;;2.08;;
40154;SDS011;25875;48.202;16.334;2024-02-23T07:28:15;2.65;;;1.67;;
40154;SDS011;25875;48.202;16.334;2024-02-23T07:30:44;2.47;;;1.70;;
40154;SDS011;25875;48.202;16.334;2024-02-23T07:33:12;2.28;;;1.50;;
40154;SDS011;25875;48.202;16.334;2024-02-23T07:35:39;3.28;;;1.80;;
40154;SDS011;25875;48.202;16.334;2024-02-23T07:38:06;2.58;;;1.80;;
40154;SDS011;25875;48.202;16.334;2024-02-23T07:40:32;3.35;;;1.70;;
40154;SDS011;25875;48.202;16.334;2024-02-23T07:42:59;2.78;;;1.70;;
40154;SDS011;25875;48.202;16.334;2024-02-23T07:45:25;3.03;;;1.90;;
40154;SDS011;25875;48.202;16.334;2024-02-23T07:47:52;2.75;;;1.75;;
40154;SDS011;25875;48.202;16.334;2024-02-23T07:50:20;2.78;;;1.95;;
40154;SDS011;25875;48.202;16.334;2024-02-23T07:52:47;2.90;;;2.03;;
40154;SDS011;25875;48.202;16.334;2024-02-23T07:55:13;3.80;;;2.25;;
40154;SDS011;25875;48.202;16.334;2024-02-23T07:57:40;6.45;;;2.42;;
40154;SDS011;25875;48.202;16.334;2024-02-23T08:00:07;4.15;;;2.20;;
40154;SDS011;25875;48.202;16.334;2024-02-23T08:02:35;5.05;;;2.30;;
40154;SDS011;25875;48.202;16.334;2024-02-23T08:05:01;3.75;;;2.15;;
40154;SDS011;25875;48.202;16.334;2024-02-23T08:07:30;3.00;;;1.80;;
40154;SDS011;25875;48.202;16.334;2024-02-23T08:09:56;2.60;;;1.60;;
40154;SDS011;25875;48.202;16.334;2024-02-23T08:12:23;2.67;;;2.00;;
40154;SDS011;25875;48.202;16.334;2024-02-23T08:14:50;2.83;;;1.85;;
40154;SDS011;25875;48.202;16.334;2024-02-23T08:17:18;2.72;;;1.92;;
40154;SDS011;25875;48.202;16.334;2024-02-23T08:19:46;3.22;;;1.70;;
40154;SDS011;25875;48.202;16.334;2024-02-23T08:22:12;3.20;;;1.83;;
40154;SDS011;25875;48.202;16.334;2024-02-23T08:24:40;2.95;;;1.90;;
40154;SDS011;25875;48.202;16.334;2024-02-23T08:27:07;2.40;;;1.60;;
40154;SDS011;25875;48.202;16.334;2024-02-23T08:29:37;2.90;;;2.08;;
40154;SDS011;25875;48.202;16.334;2024-02-23T08:32:04;4.68;;;2.17;;
40154;SDS011;25875;48.202;16.334;2024-02-23T08:34:31;2.65;;;1.70;;
40154;SDS011;25875;48.202;16.334;2024-02-23T08:36:59;2.90;;;1.80;;
40154;SDS011;25875;48.202;16.334;2024-02-23T08:39:26;3.17;;;2.00;;
40154;SDS011;25875;48.202;16.334;2024-02-23T08:41:55;3.33;;;2.42;;
40154;SDS011;25875;48.202;16.334;2024-02-23T08:44:21;2.55;;;1.60;;
40154;SDS011;25875;48.202;16.334;2024-02-23T08:46:48;3.30;;;2.20;;
40154;SDS011;25875;48.202;16.334;2024-02-23T08:49:15;2.72;;;1.80;;
40154;SDS011;25875;48.202;16.334;2024-02-23T08:51:41;2.90;;;1.75;;
40154;SDS011;25875;48.202;16.334;2024-02-23T08:54:08;3.47;;;1.92;;
40154;SDS011;25875;48.202;16.334;2024-02-23T08:56:36;2.78;;;2.00;;
40154;SDS011;25875;48.202;16.334;2024-02-23T08:59:04;3.13;;;1.85;;
40154;SDS011;25875;48.202;16.334;2024-02-23T09:01:31;1.98;;;1.40;;
40154;SDS011;25875;48.202;16.334;2024-02-23T09:03:57;3.40;;;2.30;;
40154;SDS011;25875;48.202;16.334;2024-02-23T09:06:24;3.80;;;2.03;;
40154;SDS011;25875;48.202;16.334;2024-02-23T09:08:51;2.90;;;1.70;;
40154;SDS011;25875;48.202;16.334;2024-02-23T09:11:18;2.97;;;1.67;;
40154;SDS011;25875;48.202;16.334;2024-02-23T09:13:45;2.72;;;1.90;;
40154;SDS011;25875;48.202;16.334;2024-02-23T09:16:13;4.03;;;1.88;;
40154;SDS011;25875;48.202;16.334;2024-02-23T09:18:39;2.83;;;1.77;;
40154;SDS011;25875;48.202;16.334;2024-02-23T09:21:06;4.68;;;1.75;;
40154;SDS011;25875;48.202;16.334;2024-02-23T09:23:33;3.35;;;1.75;;
40154;SDS011;25875;48.202;16.334;2024-02-23T09:25:59;5.88;;;2.10;;
40154;SDS011;25875;48.202;16.334;2024-02-23T09:28:26;3.65;;;2.05;;
40154;SDS011;25875;48.202;16.334;2024-02-23T09:30:53;2.92;;;1.67;;
40154;SDS011;25875;48.202;16.334;2024-02-23T09:33:21;4.40;;;2.33;;
40154;SDS011;25875;48.202;16.334;2024-02-23T09:35:47;3.38;;;2.25;;
40154;SDS011;25875;48.202;16.334;2024-02-23T09:38:14;4.65;;;2.25;;
40154;SDS011;25875;48.202;16.334;2024-02-23T09:40:41;2.78;;;1.80;;
40154;SDS011;25875;48.202;16.334;2024-02-23T09:43:07;2.83;;;1.52;;
40154;SDS011;25875;48.202;16.334;2024-02-23T09:45:36;3.45;;;1.90;;
40154;SDS011;25875;48.202;16.334;2024-02-23T09:48:04;6.43;;;3.70;;
40154;SDS011;25875;48.202;16.334;2024-02-23T09:50:34;3.13;;;2.00;;
40154;SDS011;25875;48.202;16.334;2024-02-23T09:53:03;2.97;;;1.75;;
40154;SDS011;25875;48.202;16.334;2024-02-23T09:55:33;2.85;;;2.03;;
40154;SDS011;25875;48.202;16.334;2024-02-23T09:58:00;3.08;;;1.75;;
40154;SDS011;25875;48.202;16.334;2024-02-23T10:00:28;2.47;;;1.60;;
40154;SDS011;25875;48.202;16.334;2024-02-23T10:02:56;2.33;;;1.40;;
40154;SDS011;25875;48.202;16.334;2024-02-23T10:05:27;3.22;;;1.65;;
40154;SDS011;25875;48.202;16.334;2024-02-23T10:07:57;4.03;;;1.65;;
40154;SDS011;25875;48.202;16.334;2024-02-23T10:10:24;2.80;;;1.52;;
40154;SDS011;25875;48.202;16.334;2024-02-23T10:12:58;2.85;;;2.00;;
40154;SDS011;25875;48.202;16.334;2024-02-23T10:15:23;3.70;;;1.90;;
40154;SDS011;25875;48.202;16.334;2024-02-23T10:17:50;2.20;;;1.50;;
40154;SDS011;25875;48.202;16.334;2024-02-23T10:20:19;2.28;;;1.48;;
40154;SDS011;25875;48.202;16.334;2024-02-23T10:22:45;2.33;;;1.60;;
40154;SDS011;25875;48.202;16.334;2024-02-23T10:25:14;3.28;;;1.75;;
40154;SDS011;25875;48.202;16.334;2024-02-23T10:27:41;2.85;;;1.30;;
40154;SDS011;25875;48.202;16.334;2024-02-23T10:30:08;2.35;;;1.55;;
40154;SDS011;25875;48.202;16.334;2024-02-23T10:32:38;1.95;;;1.50;;
40154;SDS011;25875;48.202;16.334;2024-02-23T10:35:06;2.10;;;1.45;;
40154;SDS011;25875;48.202;16.334;2024-02-23T10:37:36;2.38;;;1.40;;
40154;SDS011;25875;48.202;16.334;2024-02-23T10:40:04;2.45;;;1.50;;
40154;SDS011;25875;48.202;16.334;2024-02-23T10:42:37;3.20;;;2.22;;
40154;SDS011;25875;48.202;16.334;2024-02-23T10:45:05;3.00;;;1.80;;
40154;SDS011;25875;48.202;16.334;2024-02-23T10:47:33;3.65;;;2.30;;
40154;SDS011;25875;48.202;16.334;2024-02-23T10:50:01;4.43;;;2.40;;
40154;SDS011;25875;48.202;16.334;2024-02-23T10:52:29;6.68;;;4.57;;
40154;SDS011;25875;48.202;16.334;2024-02-23T10:54:58;6.18;;;2.78;;
40154;SDS011;25875;48.202;16.334;2024-02-23T10:57:28;3.05;;;1.90;;
40154;SDS011;25875;48.202;16.334;2024-02-23T10:59:56;4.10;;;2.47;;
40154;SDS011;25875;48.202;16.334;2024-02-23T11:02:23;6.63;;;2.17;;
40154;SDS011;25875;48.202;16.334;2024-02-23T11:04:53;3.10;;;2.13;;
40154;SDS011;25875;48.202;16.334;2024-02-23T11:07:22;3.15;;;1.73;;
40154;SDS011;25875;48.202;16.334;2024-02-23T11:09:51;3.53;;;1.83;;
40154;SDS011;25875;48.202;16.334;2024-02-23T11:12:24;2.95;;;2.10;;
40154;SDS011;25875;48.202;16.334;2024-02-23T11:14:51;3.88;;;2.65;;
40154;SDS011;25875;48.202;16.334;2024-02-23T11:17:26;5.40;;;2.90;;
40154;SDS011;25875;48.202;16.334;2024-02-23T11:19:54;5.53;;;2.95;;
40154;SDS011;25875;48.202;16.334;2024-02-23T11:22:24;4.90;;;3.38;;
40154;SDS011;25875;48.202;16.334;2024-02-23T11:24:52;3.58;;;2.30;;
40154;SDS011;25875;48.202;16.334;2024-02-23T11:27:19;4.63;;;3.10;;
40154;SDS011;25875;48.202;16.334;2024-02-23T11:29:46;5.00;;;2.63;;
40154;SDS011;25875;48.202;16.334;2024-02-23T11:32:16;7.50;;;3.33;;
40154;SDS011;25875;48.202;16.334;2024-02-23T11:34:53;7.38;;;2.55;;
40154;SDS011;25875;48.202;16.334;2024-02-23T11:37:21;3.75;;;2.85;;
40154;SDS011;25875;48.202;16.334;2024-02-23T11:39:48;5.35;;;2.55;;
40154;SDS011;25875;48.202;16.334;2024-02-23T11:42:16;6.07;;;2.95;;
40154;SDS011;25875;48.202;16.334;2024-02-23T11:44:44;6.07;;;4.13;;
40154;SDS011;25875;48.202;16.334;2024-02-23T11:47:10;4.18;;;3.00;;
40154;SDS011;25875;48.202;16.334;2024-02-23T11:49:38;4.53;;;2.72;;
40154;SDS011;25875;48.202;16.334;2024-02-23T11:52:05;4.38;;;2.40;;
40154;SDS011;25875;48.202;16.334;2024-02-23T11:54:32;4.32;;;2.80;;
40154;SDS011;25875;48.202;16.334;2024-02-23T11:56:59;6.10;;;2.60;;
40154;SDS011;25875;48.202;16.334;2024-02-23T11:59:26;4.28;;;2.70;;
40154;SDS011;25875;48.202;16.334;2024-02-23T12:01:53;6.75;;;3.03;;
40154;SDS011;25875;48.202;16.334;2024-02-23T12:04:19;4.50;;;2.72;;
40154;SDS011;25875;48.202;16.334;2024-02-23T12:06:47;5.18;;;3.20;;
40154;SDS011;25875;48.202;16.334;2024-02-23T12:09:15;6.93;;;4.35;;
40154;SDS011;25875;48.202;16.334;2024-02-23T12:11:41;6.60;;;3.97;;
40154;SDS011;25875;48.202;16.334;2024-02-23T12:14:08;4.30;;;2.53;;
40154;SDS011;25875;48.202;16.334;2024-02-23T12:16:35;3.65;;;2.33;;
40154;SDS011;25875;48.202;16.334;2024-02-23T12:19:02;6.53;;;4.97;;
40154;SDS011;25875;48.202;16.334;2024-02-23T12:21:28;3.58;;;2.67;;
40154;SDS011;25875;48.202;16.334;2024-02-23T12:23:56;4.32;;;2.58;;
40154;SDS011;25875;48.202;16.334;2024-02-23T12:26:23;3.47;;;2.35;;
40154;SDS011;25875;48.202;16.334;2024-02-23T12:28:50;4.32;;;2.35;;
40154;SDS011;25875;48.202;16.334;2024-02-23T12:31:17;5.70;;;3.20;;
40154;SDS011;25875;48.202;16.334;2024-02-23T12:33:50;3.33;;;2.63;;
40154;SDS011;25875;48.202;16.334;2024-02-23T12:36:17;4.32;;;2.35;;
40154;SDS011;25875;48.202;16.334;2024-02-23T12:38:43;3.30;;;2.35;;
40154;SDS011;25875;48.202;16.334;2024-02-23T12:41:11;4.88;;;2.53;;
40154;SDS011;25875;48.202;16.334;2024-02-23T12:43:38;3.75;;;2.58;;
40154;SDS011;25875;48.202;16.334;2024-02-23T12:46:05;4.55;;;2.60;;
40154;SDS011;25875;48.202;16.334;2024-02-23T12:48:33;3.67;;;2.38;;
40154;SDS011;25875;48.202;16.334;2024-02-23T12:51:00;4.68;;;3.47;;
40154;SDS011;25875;48.202;16.334;2024-02-23T12:53:30;6.18;;;4.15;;
40154;SDS011;25875;48.202;16.334;2024-02-23T12:55:58;6.60;;;3.95;;
40154;SDS011;25875;48.202;16.334;2024-02-23T12:58:26;3.60;;;2.90;;
40154;SDS011;25875;48.202;16.334;2024-02-23T13:00:53;4.93;;;2.90;;
40154;SDS011;25875;48.202;16.334;2024-02-23T13:03:20;4.80;;;3.20;;
40154;SDS011;25875;48.202;16.334;2024-02-23T13:05:47;9.80;;;2.88;;
40154;SDS011;25875;48.202;16.334;2024-02-23T13:08:13;4.28;;;2.90;;
40154;SDS011;25875;48.202;16.334;2024-02-23T13:10:40;4.97;;;3.20;;
40154;SDS011;25875;48.202;16.334;2024-02-23T13:13:07;4.45;;;3.10;;
40154;SDS011;25875;48.202;16.334;2024-02-23T13:15:35;4.00;;;2.22;;
40154;SDS011;25875;48.202;16.334;2024-02-23T13:18:02;3.25;;;2.20;;
40154;SDS011;25875;48.202;16.334;2024-02-23T13:20:30;5.50;;;2.85;;
40154;SDS011;25875;48.202;16.334;2024-02-23T13:22:56;4.25;;;2.90;;
40154;SDS011;25875;48.202;16.334;2024-02-23T13:25:23;3.97;;;2.70;;
40154;SDS011;25875;48.202;16.334;2024-02-23T13:27:49;4.45;;;2.55;;
40154;SDS011;25875;48.202;16.334;2024-02-23T13:30:16;3.88;;;2.60;;
40154;SDS011;25875;48.202;16.334;2024-02-23T13:32:44;4.55;;;2.40;;
40154;SDS011;25875;48.202;16.334;2024-02-23T13:35:11;3.42;;;2.17;;
40154;SDS011;25875;48.202;16.334;2024-02-23T13:37:39;5.80;;;2.70;;
40154;SDS011;25875;48.202;16.334;2024-02-23T13:40:06;3.65;;;2.92;;
40154;SDS011;25875;48.202;16.334;2024-02-23T13:42:34;5.88;;;3.00;;
40154;SDS011;25875;48.202;16.334;2024-02-23T13:45:03;4.97;;;3.58;;
40154;SDS011;25875;48.202;16.334;2024-02-23T13:47:30;4.07;;;2.30;;
40154;SDS011;25875;48.202;16.334;2024-02-23T13:49:59;4.45;;;2.58;;
40154;SDS011;25875;48.202;16.334;2024-02-23T13:52:25;5.70;;;3.05;;
40154;SDS011;25875;48.202;16.334;2024-02-23T13:54:52;3.85;;;2.80;;
40154;SDS011;25875;48.202;16.334;2024-02-23T13:57:19;3.28;;;2.20;;
40154;SDS011;25875;48.202;16.334;2024-02-23T13:59:45;3.45;;;2.60;;
40154;SDS011;25875;48.202;16.334;2024-02-23T14:02:13;4.38;;;3.10;;
40154;SDS011;25875;48.202;16.334;2024-02-23T14:04:39;3.97;;;2.70;;
40154;SDS011;25875;48.202;16.334;2024-02-23T14:07:08;4.45;;;3.25;;
40154;SDS011;25875;48.202;16.334;2024-02-23T14:09:34;5.72;;;2.60;;
40154;SDS011;25875;48.202;16.334;2024-02-23T14:12:01;5.70;;;3.00;;
40154;SDS011;25875;48.202;16.334;2024-02-23T14:14:29;5.22;;;3.20;;
40154;SDS011;25875;48.202;16.334;2024-02-23T14:16:56;6.10;;;4.13;;
40154;SDS011;25875;48.202;16.334;2024-02-23T14:19:22;4.75;;;3.15;;
40154;SDS011;25875;48.202;16.334;2024-02-23T14:21:50;7.70;;;4.55;;
40154;SDS011;25875;48.202;16.334;2024-02-23T14:24:19;5.57;;;4.28;;
40154;SDS011;25875;48.202;16.334;2024-02-23T14:26:46;6.03;;;3.95;;
40154;SDS011;25875;48.202;16.334;2024-02-23T14:29:13;4.30;;;3.35;;
40154;SDS011;25875;48.202;16.334;2024-02-23T14:31:40;4.90;;;3.20;;
40154;SDS011;25875;48.202;16.334;2024-02-23T14:34:06;4.80;;;2.78;;